Flight Briefing for CPX325

Departure Arrival
March Air Reserve Base (KRIV)
Click to view FAA NOTAMS
Fort Worth Alliance Airport (KAFW)
Click to view FAA NOTAMS
Departure Time Arrival Time
N/A N/A
Aircraft Distance
B767-300BDSF 1001nm
Departure METAR Arrival METAR
KRIV 192158Z AUTO 24006KT 10SM CLR 11/M07 A3007 RMK AO2 SLP186 T01121071 KAFW 192217Z 01009KT 2SM -RA BR BKN004 OVC009 03/02 A2994 RMK AO2 P0001 T00280017
Suggested Route
TRM J78 ABQ J72 TURKI WESAT2


View recent IFR Routes data
Notes



Charts and Procedures

Charts for KRIV
No chart available
Charts for KAFW
No chart available

Ventusky Weather




{"cat":null,"equip":null,"transponder":null,"pbn":"PBN\/","maxpax":null,"oew":"0.0","mzfw":"0.0","mtow":"0.0","mlw":"0.0","maxfuel":"0.0"} DEVELOPMENTAL TEST USE ONLY